sensor_id;sensor_type;location;lat;lon;timestamp;P1;durP1;ratioP1;P2;durP2;ratioP2
42098;SDS011;27758;55.900;8.516;2022-10-16T00:00:41;23.35;;;3.70;;
42098;SDS011;27758;55.900;8.516;2022-10-16T00:03:07;9.98;;;2.95;;
42098;SDS011;27758;55.900;8.516;2022-10-16T00:05:43;22.33;;;3.47;;
42098;SDS011;27758;55.900;8.516;2022-10-16T00:08:11;14.07;;;3.10;;
42098;SDS011;27758;55.900;8.516;2022-10-16T00:10:37;12.27;;;3.10;;
42098;SDS011;27758;55.900;8.516;2022-10-16T00:13:03;14.27;;;2.55;;
42098;SDS011;27758;55.900;8.516;2022-10-16T00:15:32;18.95;;;2.92;;
42098;SDS011;27758;55.900;8.516;2022-10-16T00:18:01;14.50;;;2.75;;
42098;SDS011;27758;55.900;8.516;2022-10-16T00:20:28;16.17;;;3.08;;
42098;SDS011;27758;55.900;8.516;2022-10-16T00:22:54;16.27;;;2.97;;
42098;SDS011;27758;55.900;8.516;2022-10-16T00:25:20;15.90;;;3.53;;
42098;SDS011;27758;55.900;8.516;2022-10-16T00:27:46;18.63;;;3.80;;
42098;SDS011;27758;55.900;8.516;2022-10-16T00:30:12;12.32;;;3.20;;
42098;SDS011;27758;55.900;8.516;2022-10-16T00:32:37;20.05;;;2.97;;
42098;SDS011;27758;55.900;8.516;2022-10-16T00:35:03;13.23;;;2.50;;
42098;SDS011;27758;55.900;8.516;2022-10-16T00:37:30;18.85;;;3.05;;
42098;SDS011;27758;55.900;8.516;2022-10-16T00:39:55;18.67;;;2.30;;
42098;SDS011;27758;55.900;8.516;2022-10-16T00:42:21;17.90;;;2.85;;
42098;SDS011;27758;55.900;8.516;2022-10-16T00:44:49;18.00;;;2.38;;
42098;SDS011;27758;55.900;8.516;2022-10-16T00:47:28;10.65;;;2.22;;
42098;SDS011;27758;55.900;8.516;2022-10-16T00:50:01;14.40;;;2.58;;
42098;SDS011;27758;55.900;8.516;2022-10-16T00:52:37;14.27;;;2.20;;
42098;SDS011;27758;55.900;8.516;2022-10-16T00:55:06;15.15;;;2.47;;
42098;SDS011;27758;55.900;8.516;2022-10-16T00:57:34;10.65;;;2.05;;
42098;SDS011;27758;55.900;8.516;2022-10-16T01:00:02;17.13;;;3.53;;
42098;SDS011;27758;55.900;8.516;2022-10-16T01:02:30;15.27;;;2.33;;
42098;SDS011;27758;55.900;8.516;2022-10-16T01:04:56;16.95;;;3.17;;
42098;SDS011;27758;55.900;8.516;2022-10-16T01:12:49;17.15;;;2.67;;
42098;SDS011;27758;55.900;8.516;2022-10-16T01:17:50;19.17;;;3.05;;
42098;SDS011;27758;55.900;8.516;2022-10-16T01:20:26;11.38;;;2.72;;
42098;SDS011;27758;55.900;8.516;2022-10-16T01:23:01;14.18;;;2.90;;
42098;SDS011;27758;55.900;8.516;2022-10-16T01:25:53;15.32;;;3.28;;
42098;SDS011;27758;55.900;8.516;2022-10-16T01:31:21;21.90;;;4.00;;
42098;SDS011;27758;55.900;8.516;2022-10-16T01:33:53;24.05;;;4.03;;
42098;SDS011;27758;55.900;8.516;2022-10-16T01:36:26;13.07;;;3.17;;
42098;SDS011;27758;55.900;8.516;2022-10-16T01:39:00;14.82;;;2.90;;
42098;SDS011;27758;55.900;8.516;2022-10-16T01:41:33;17.65;;;3.33;;
42098;SDS011;27758;55.900;8.516;2022-10-16T01:44:10;15.02;;;2.50;;
42098;SDS011;27758;55.900;8.516;2022-10-16T01:46:42;14.75;;;2.80;;
42098;SDS011;27758;55.900;8.516;2022-10-16T01:51:37;15.48;;;2.70;;
42098;SDS011;27758;55.900;8.516;2022-10-16T01:54:07;17.17;;;2.65;;
42098;SDS011;27758;55.900;8.516;2022-10-16T01:56:34;19.17;;;2.75;;
42098;SDS011;27758;55.900;8.516;2022-10-16T01:59:04;19.85;;;3.08;;
42098;SDS011;27758;55.900;8.516;2022-10-16T02:01:42;17.98;;;3.95;;
42098;SDS011;27758;55.900;8.516;2022-10-16T02:04:24;22.30;;;2.75;;
42098;SDS011;27758;55.900;8.516;2022-10-16T02:06:55;20.83;;;3.20;;
42098;SDS011;27758;55.900;8.516;2022-10-16T02:09:22;16.20;;;2.70;;
42098;SDS011;27758;55.900;8.516;2022-10-16T02:11:48;14.70;;;2.33;;
42098;SDS011;27758;55.900;8.516;2022-10-16T02:14:16;13.48;;;2.45;;
42098;SDS011;27758;55.900;8.516;2022-10-16T02:16:43;11.00;;;3.15;;
42098;SDS011;27758;55.900;8.516;2022-10-16T02:19:11;12.02;;;2.35;;
42098;SDS011;27758;55.900;8.516;2022-10-16T02:21:49;8.32;;;1.80;;
42098;SDS011;27758;55.900;8.516;2022-10-16T02:29:38;9.40;;;2.00;;
42098;SDS011;27758;55.900;8.516;2022-10-16T02:32:13;12.00;;;2.13;;
42098;SDS011;27758;55.900;8.516;2022-10-16T02:34:43;10.73;;;2.53;;
42098;SDS011;27758;55.900;8.516;2022-10-16T02:37:10;11.40;;;2.33;;
42098;SDS011;27758;55.900;8.516;2022-10-16T02:39:36;10.10;;;1.70;;
42098;SDS011;27758;55.900;8.516;2022-10-16T02:42:03;16.83;;;3.00;;
42098;SDS011;27758;55.900;8.516;2022-10-16T02:44:29;9.80;;;2.00;;
42098;SDS011;27758;55.900;8.516;2022-10-16T02:46:55;12.18;;;2.47;;
42098;SDS011;27758;55.900;8.516;2022-10-16T02:49:21;21.38;;;2.90;;
42098;SDS011;27758;55.900;8.516;2022-10-16T02:51:47;12.48;;;2.10;;
42098;SDS011;27758;55.900;8.516;2022-10-16T02:54:12;15.35;;;1.90;;
42098;SDS011;27758;55.900;8.516;2022-10-16T02:56:38;13.10;;;2.10;;
42098;SDS011;27758;55.900;8.516;2022-10-16T02:59:04;10.43;;;1.92;;
42098;SDS011;27758;55.900;8.516;2022-10-16T03:01:30;16.25;;;2.92;;
42098;SDS011;27758;55.900;8.516;2022-10-16T03:03:55;18.02;;;2.35;;
42098;SDS011;27758;55.900;8.516;2022-10-16T03:06:21;16.42;;;1.92;;
42098;SDS011;27758;55.900;8.516;2022-10-16T03:08:47;15.55;;;2.47;;
42098;SDS011;27758;55.900;8.516;2022-10-16T03:11:13;11.93;;;2.05;;
42098;SDS011;27758;55.900;8.516;2022-10-16T03:13:39;15.32;;;2.45;;
42098;SDS011;27758;55.900;8.516;2022-10-16T03:16:04;16.67;;;2.42;;
42098;SDS011;27758;55.900;8.516;2022-10-16T03:18:30;15.50;;;2.80;;
42098;SDS011;27758;55.900;8.516;2022-10-16T03:20:56;10.02;;;2.25;;
42098;SDS011;27758;55.900;8.516;2022-10-16T03:23:22;15.70;;;2.45;;
42098;SDS011;27758;55.900;8.516;2022-10-16T03:25:50;13.60;;;1.88;;
42098;SDS011;27758;55.900;8.516;2022-10-16T03:28:15;10.73;;;2.35;;
42098;SDS011;27758;55.900;8.516;2022-10-16T03:30:42;11.57;;;2.40;;
42098;SDS011;27758;55.900;8.516;2022-10-16T03:33:09;12.80;;;2.58;;
42098;SDS011;27758;55.900;8.516;2022-10-16T03:35:34;17.27;;;2.83;;
42098;SDS011;27758;55.900;8.516;2022-10-16T03:38:00;9.00;;;2.35;;
42098;SDS011;27758;55.900;8.516;2022-10-16T03:40:26;16.02;;;2.28;;
42098;SDS011;27758;55.900;8.516;2022-10-16T03:42:52;8.38;;;2.22;;
42098;SDS011;27758;55.900;8.516;2022-10-16T03:45:20;9.55;;;1.40;;
42098;SDS011;27758;55.900;8.516;2022-10-16T03:47:46;8.70;;;2.00;;
42098;SDS011;27758;55.900;8.516;2022-10-16T03:50:12;16.35;;;2.47;;
42098;SDS011;27758;55.900;8.516;2022-10-16T03:52:38;14.60;;;2.42;;
42098;SDS011;27758;55.900;8.516;2022-10-16T03:55:04;16.08;;;2.42;;
42098;SDS011;27758;55.900;8.516;2022-10-16T03:57:30;12.73;;;1.92;;
42098;SDS011;27758;55.900;8.516;2022-10-16T03:59:56;13.70;;;2.28;;
42098;SDS011;27758;55.900;8.516;2022-10-16T04:02:22;16.08;;;2.38;;
42098;SDS011;27758;55.900;8.516;2022-10-16T04:04:48;11.70;;;2.03;;
42098;SDS011;27758;55.900;8.516;2022-10-16T04:07:13;13.55;;;2.70;;
42098;SDS011;27758;55.900;8.516;2022-10-16T04:09:39;17.17;;;2.53;;
42098;SDS011;27758;55.900;8.516;2022-10-16T04:12:05;13.23;;;2.22;;
42098;SDS011;27758;55.900;8.516;2022-10-16T04:14:31;21.08;;;1.80;;
42098;SDS011;27758;55.900;8.516;2022-10-16T04:16:56;18.77;;;3.25;;
42098;SDS011;27758;55.900;8.516;2022-10-16T04:19:22;23.17;;;3.47;;
42098;SDS011;27758;55.900;8.516;2022-10-16T04:21:48;14.35;;;1.98;;
42098;SDS011;27758;55.900;8.516;2022-10-16T04:24:13;20.10;;;3.08;;
42098;SDS011;27758;55.900;8.516;2022-10-16T04:26:39;14.82;;;1.90;;
42098;SDS011;27758;55.900;8.516;2022-10-16T04:29:05;16.13;;;3.00;;
42098;SDS011;27758;55.900;8.516;2022-10-16T04:31:32;10.55;;;2.08;;
42098;SDS011;27758;55.900;8.516;2022-10-16T04:33:58;17.50;;;2.97;;
42098;SDS011;27758;55.900;8.516;2022-10-16T04:36:24;11.35;;;2.33;;
42098;SDS011;27758;55.900;8.516;2022-10-16T04:38:49;20.95;;;3.78;;
42098;SDS011;27758;55.900;8.516;2022-10-16T04:41:15;18.83;;;2.42;;
42098;SDS011;27758;55.900;8.516;2022-10-16T04:43:41;10.63;;;2.47;;
42098;SDS011;27758;55.900;8.516;2022-10-16T04:46:07;16.55;;;2.63;;
42098;SDS011;27758;55.900;8.516;2022-10-16T04:48:32;17.67;;;2.95;;
42098;SDS011;27758;55.900;8.516;2022-10-16T04:50:58;12.30;;;2.45;;
42098;SDS011;27758;55.900;8.516;2022-10-16T04:53:25;22.63;;;2.88;;
42098;SDS011;27758;55.900;8.516;2022-10-16T04:55:50;12.90;;;2.45;;
42098;SDS011;27758;55.900;8.516;2022-10-16T04:58:16;14.25;;;1.92;;
42098;SDS011;27758;55.900;8.516;2022-10-16T05:00:42;12.20;;;1.67;;
42098;SDS011;27758;55.900;8.516;2022-10-16T05:03:09;22.27;;;4.15;;
42098;SDS011;27758;55.900;8.516;2022-10-16T05:05:35;14.10;;;2.50;;
42098;SDS011;27758;55.900;8.516;2022-10-16T05:08:02;18.65;;;2.80;;
42098;SDS011;27758;55.900;8.516;2022-10-16T05:10:28;19.45;;;3.60;;
42098;SDS011;27758;55.900;8.516;2022-10-16T05:12:53;19.50;;;3.03;;
42098;SDS011;27758;55.900;8.516;2022-10-16T05:15:19;14.40;;;3.22;;
42098;SDS011;27758;55.900;8.516;2022-10-16T05:17:45;17.27;;;2.65;;
42098;SDS011;27758;55.900;8.516;2022-10-16T05:20:12;14.13;;;2.90;;
42098;SDS011;27758;55.900;8.516;2022-10-16T05:22:38;24.25;;;4.05;;
42098;SDS011;27758;55.900;8.516;2022-10-16T05:25:04;17.30;;;3.00;;
42098;SDS011;27758;55.900;8.516;2022-10-16T05:27:30;27.20;;;4.85;;
42098;SDS011;27758;55.900;8.516;2022-10-16T05:29:56;23.80;;;4.18;;
42098;SDS011;27758;55.900;8.516;2022-10-16T05:32:22;27.05;;;3.60;;
42098;SDS011;27758;55.900;8.516;2022-10-16T05:34:47;27.25;;;4.05;;
42098;SDS011;27758;55.900;8.516;2022-10-16T05:37:13;34.83;;;4.78;;
42098;SDS011;27758;55.900;8.516;2022-10-16T05:39:39;27.25;;;5.82;;
42098;SDS011;27758;55.900;8.516;2022-10-16T05:42:05;26.42;;;4.65;;
42098;SDS011;27758;55.900;8.516;2022-10-16T05:44:31;32.45;;;5.53;;
42098;SDS011;27758;55.900;8.516;2022-10-16T05:46:57;30.85;;;4.57;;
42098;SDS011;27758;55.900;8.516;2022-10-16T05:49:23;21.50;;;4.55;;
42098;SDS011;27758;55.900;8.516;2022-10-16T05:51:49;26.83;;;5.05;;
42098;SDS011;27758;55.900;8.516;2022-10-16T05:54:15;32.50;;;6.25;;
42098;SDS011;27758;55.900;8.516;2022-10-16T05:56:41;29.98;;;5.88;;
42098;SDS011;27758;55.900;8.516;2022-10-16T05:59:07;32.58;;;5.28;;
42098;SDS011;27758;55.900;8.516;2022-10-16T06:01:32;31.88;;;4.78;;
42098;SDS011;27758;55.900;8.516;2022-10-16T06:03:58;32.08;;;5.68;;
42098;SDS011;27758;55.900;8.516;2022-10-16T06:06:25;35.58;;;5.50;;
42098;SDS011;27758;55.900;8.516;2022-10-16T06:08:52;23.48;;;4.95;;
42098;SDS011;27758;55.900;8.516;2022-10-16T06:11:21;35.13;;;5.13;;
42098;SDS011;27758;55.900;8.516;2022-10-16T06:13:56;25.77;;;4.07;;
42098;SDS011;27758;55.900;8.516;2022-10-16T06:16:23;29.35;;;5.53;;
42098;SDS011;27758;55.900;8.516;2022-10-16T06:18:50;31.55;;;6.25;;
42098;SDS011;27758;55.900;8.516;2022-10-16T06:21:18;26.95;;;4.55;;
42098;SDS011;27758;55.900;8.516;2022-10-16T06:23:50;21.15;;;4.70;;
42098;SDS011;27758;55.900;8.516;2022-10-16T06:26:17;23.48;;;5.55;;
42098;SDS011;27758;55.900;8.516;2022-10-16T06:28:45;32.22;;;4.93;;
42098;SDS011;27758;55.900;8.516;2022-10-16T06:31:11;24.80;;;5.20;;
42098;SDS011;27758;55.900;8.516;2022-10-16T06:33:38;33.08;;;5.88;;
42098;SDS011;27758;55.900;8.516;2022-10-16T06:36:09;35.10;;;5.82;;
42098;SDS011;27758;55.900;8.516;2022-10-16T06:38:36;25.38;;;5.50;;
42098;SDS011;27758;55.900;8.516;2022-10-16T06:41:03;26.48;;;4.45;;
42098;SDS011;27758;55.900;8.516;2022-10-16T06:43:30;32.35;;;5.13;;
42098;SDS011;27758;55.900;8.516;2022-10-16T06:45:57;27.88;;;5.82;;
42098;SDS011;27758;55.900;8.516;2022-10-16T06:48:24;31.38;;;6.20;;
42098;SDS011;27758;55.900;8.516;2022-10-16T06:53:23;25.50;;;5.25;;
42098;SDS011;27758;55.900;8.516;2022-10-16T06:55:50;36.05;;;7.15;;
42098;SDS011;27758;55.900;8.516;2022-10-16T06:58:15;31.35;;;4.13;;
42098;SDS011;27758;55.900;8.516;2022-10-16T07:00:41;27.20;;;4.82;;
42098;SDS011;27758;55.900;8.516;2022-10-16T07:03:07;25.35;;;4.95;;
42098;SDS011;27758;55.900;8.516;2022-10-16T07:05:37;26.85;;;5.90;;
42098;SDS011;27758;55.900;8.516;2022-10-16T07:08:06;24.92;;;5.30;;
42098;SDS011;27758;55.900;8.516;2022-10-16T07:10:33;33.97;;;5.97;;
42098;SDS011;27758;55.900;8.516;2022-10-16T07:12:59;34.38;;;6.00;;
42098;SDS011;27758;55.900;8.516;2022-10-16T07:15:25;38.22;;;5.78;;
42098;SDS011;27758;55.900;8.516;2022-10-16T07:17:51;29.17;;;5.78;;
42098;SDS011;27758;55.900;8.516;2022-10-16T07:20:17;28.15;;;5.97;;
42098;SDS011;27758;55.900;8.516;2022-10-16T07:22:43;32.55;;;4.90;;
42098;SDS011;27758;55.900;8.516;2022-10-16T07:25:09;21.70;;;4.30;;
42098;SDS011;27758;55.900;8.516;2022-10-16T07:27:35;10.18;;;1.80;;
42098;SDS011;27758;55.900;8.516;2022-10-16T07:30:00;16.10;;;3.08;;
42098;SDS011;27758;55.900;8.516;2022-10-16T07:32:26;14.48;;;2.55;;
42098;SDS011;27758;55.900;8.516;2022-10-16T07:34:52;6.65;;;2.00;;
42098;SDS011;27758;55.900;8.516;2022-10-16T07:37:19;6.47;;;1.77;;
42098;SDS011;27758;55.900;8.516;2022-10-16T07:39:44;7.80;;;1.88;;
42098;SDS011;27758;55.900;8.516;2022-10-16T07:42:10;10.23;;;1.55;;
42098;SDS011;27758;55.900;8.516;2022-10-16T07:44:36;12.27;;;2.40;;
42098;SDS011;27758;55.900;8.516;2022-10-16T07:47:02;20.15;;;2.55;;
42098;SDS011;27758;55.900;8.516;2022-10-16T07:49:27;15.68;;;2.83;;
42098;SDS011;27758;55.900;8.516;2022-10-16T07:51:53;18.85;;;3.70;;
42098;SDS011;27758;55.900;8.516;2022-10-16T07:54:19;20.52;;;4.22;;
42098;SDS011;27758;55.900;8.516;2022-10-16T07:56:45;15.88;;;3.35;;
42098;SDS011;27758;55.900;8.516;2022-10-16T07:59:11;26.88;;;3.88;;
42098;SDS011;27758;55.900;8.516;2022-10-16T08:01:36;17.70;;;3.35;;
42098;SDS011;27758;55.900;8.516;2022-10-16T08:04:02;26.80;;;4.38;;
42098;SDS011;27758;55.900;8.516;2022-10-16T08:06:28;20.58;;;3.75;;
42098;SDS011;27758;55.900;8.516;2022-10-16T08:08:56;20.27;;;3.80;;
42098;SDS011;27758;55.900;8.516;2022-10-16T08:11:25;23.45;;;4.30;;
42098;SDS011;27758;55.900;8.516;2022-10-16T08:13:51;22.58;;;4.60;;
42098;SDS011;27758;55.900;8.516;2022-10-16T08:16:17;22.60;;;4.57;;
42098;SDS011;27758;55.900;8.516;2022-10-16T08:18:43;18.65;;;4.38;;
42098;SDS011;27758;55.900;8.516;2022-10-16T08:21:12;22.20;;;4.05;;
42098;SDS011;27758;55.900;8.516;2022-10-16T08:23:40;22.60;;;5.18;;
42098;SDS011;27758;55.900;8.516;2022-10-16T08:26:07;25.90;;;4.82;;
42098;SDS011;27758;55.900;8.516;2022-10-16T08:28:33;24.30;;;5.20;;
42098;SDS011;27758;55.900;8.516;2022-10-16T08:31:07;21.63;;;4.68;;
42098;SDS011;27758;55.900;8.516;2022-10-16T08:33:34;28.58;;;5.57;;
42098;SDS011;27758;55.900;8.516;2022-10-16T08:36:01;28.60;;;5.18;;
42098;SDS011;27758;55.900;8.516;2022-10-16T08:38:27;27.65;;;4.90;;
42098;SDS011;27758;55.900;8.516;2022-10-16T08:40:53;24.83;;;4.70;;
42098;SDS011;27758;55.900;8.516;2022-10-16T08:43:30;30.45;;;4.72;;
42098;SDS011;27758;55.900;8.516;2022-10-16T08:46:11;24.17;;;4.10;;
42098;SDS011;27758;55.900;8.516;2022-10-16T08:48:46;27.55;;;4.43;;
42098;SDS011;27758;55.900;8.516;2022-10-16T08:51:24;27.58;;;6.55;;
42098;SDS011;27758;55.900;8.516;2022-10-16T08:54:12;30.23;;;5.15;;
42098;SDS011;27758;55.900;8.516;2022-10-16T08:57:09;31.95;;;5.18;;
42098;SDS011;27758;55.900;8.516;2022-10-16T08:59:47;22.88;;;5.55;;
42098;SDS011;27758;55.900;8.516;2022-10-16T09:02:29;26.90;;;6.05;;
42098;SDS011;27758;55.900;8.516;2022-10-16T09:10:37;23.80;;;5.53;;
42098;SDS011;27758;55.900;8.516;2022-10-16T09:21:25;29.48;;;5.18;;
42098;SDS011;27758;55.900;8.516;2022-10-16T09:23:57;28.02;;;5.55;;
42098;SDS011;27758;55.900;8.516;2022-10-16T09:26:29;18.15;;;4.65;;
42098;SDS011;27758;55.900;8.516;2022-10-16T09:28:55;28.73;;;4.95;;
42098;SDS011;27758;55.900;8.516;2022-10-16T09:31:21;21.50;;;5.03;;
42098;SDS011;27758;55.900;8.516;2022-10-16T09:33:50;24.52;;;5.97;;
42098;SDS011;27758;55.900;8.516;2022-10-16T09:36:25;27.33;;;5.80;;
42098;SDS011;27758;55.900;8.516;2022-10-16T09:39:01;30.33;;;5.75;;
42098;SDS011;27758;55.900;8.516;2022-10-16T09:41:29;24.75;;;5.45;;
42098;SDS011;27758;55.900;8.516;2022-10-16T09:43:56;22.13;;;4.93;;
42098;SDS011;27758;55.900;8.516;2022-10-16T09:46:25;18.65;;;3.92;;
42098;SDS011;27758;55.900;8.516;2022-10-16T09:48:58;16.05;;;2.85;;
42098;SDS011;27758;55.900;8.516;2022-10-16T09:51:27;18.00;;;3.90;;
42098;SDS011;27758;55.900;8.516;2022-10-16T09:53:58;13.75;;;3.33;;
42098;SDS011;27758;55.900;8.516;2022-10-16T09:56:31;15.75;;;3.58;;
42098;SDS011;27758;55.900;8.516;2022-10-16T09:59:11;12.88;;;2.45;;
42098;SDS011;27758;55.900;8.516;2022-10-16T10:01:39;17.73;;;3.53;;
42098;SDS011;27758;55.900;8.516;2022-10-16T10:04:13;20.58;;;3.22;;
42098;SDS011;27758;55.900;8.516;2022-10-16T10:06:43;22.50;;;4.30;;
42098;SDS011;27758;55.900;8.516;2022-10-16T10:11:40;22.08;;;4.57;;
42098;SDS011;27758;55.900;8.516;2022-10-16T10:17:17;22.05;;;3.85;;
42098;SDS011;27758;55.900;8.516;2022-10-16T10:46:03;25.35;;;5.88;;
42098;SDS011;27758;55.900;8.516;2022-10-16T10:56:50;15.70;;;3.85;;
42098;SDS011;27758;55.900;8.516;2022-10-16T11:07:24;27.70;;;4.97;;
42098;SDS011;27758;55.900;8.516;2022-10-16T11:09:55;21.50;;;4.57;;
42098;SDS011;27758;55.900;8.516;2022-10-16T11:12:31;25.45;;;4.90;;
42098;SDS011;27758;55.900;8.516;2022-10-16T11:15:07;23.70;;;4.50;;
42098;SDS011;27758;55.900;8.516;2022-10-16T11:17:40;20.58;;;4.32;;
42098;SDS011;27758;55.900;8.516;2022-10-16T11:25:22;18.70;;;4.05;;
42098;SDS011;27758;55.900;8.516;2022-10-16T11:30:53;22.70;;;4.30;;
42098;SDS011;27758;55.900;8.516;2022-10-16T11:33:47;25.20;;;4.82;;
42098;SDS011;27758;55.900;8.516;2022-10-16T11:41:34;17.03;;;3.37;;
42098;SDS011;27758;55.900;8.516;2022-10-16T11:44:14;14.40;;;3.88;;
42098;SDS011;27758;55.900;8.516;2022-10-16T11:49:30;15.80;;;3.08;;
42098;SDS011;27758;55.900;8.516;2022-10-16T11:52:10;23.20;;;4.60;;
42098;SDS011;27758;55.900;8.516;2022-10-16T11:54:46;13.32;;;3.47;;
42098;SDS011;27758;55.900;8.516;2022-10-16T11:57:27;18.33;;;3.20;;
42098;SDS011;27758;55.900;8.516;2022-10-16T12:00:00;16.30;;;3.35;;
42098;SDS011;27758;55.900;8.516;2022-10-16T12:02:40;18.02;;;3.75;;
42098;SDS011;27758;55.900;8.516;2022-10-16T12:05:20;15.68;;;3.20;;
42098;SDS011;27758;55.900;8.516;2022-10-16T12:08:07;16.88;;;3.17;;
42098;SDS011;27758;55.900;8.516;2022-10-16T12:10:34;13.23;;;2.88;;
42098;SDS011;27758;55.900;8.516;2022-10-16T12:13:04;17.17;;;3.45;;
42098;SDS011;27758;55.900;8.516;2022-10-16T12:15:50;16.67;;;3.30;;
42098;SDS011;27758;55.900;8.516;2022-10-16T12:18:25;16.35;;;3.45;;
42098;SDS011;27758;55.900;8.516;2022-10-16T12:20:55;14.05;;;2.50;;
42098;SDS011;27758;55.900;8.516;2022-10-16T12:23:29;19.08;;;3.28;;
42098;SDS011;27758;55.900;8.516;2022-10-16T12:25:56;12.32;;;2.65;;
42098;SDS011;27758;55.900;8.516;2022-10-16T12:28:27;13.95;;;3.28;;
42098;SDS011;27758;55.900;8.516;2022-10-16T12:33:26;18.57;;;3.73;;
42098;SDS011;27758;55.900;8.516;2022-10-16T12:35:54;17.15;;;2.92;;
42098;SDS011;27758;55.900;8.516;2022-10-16T12:38:21;21.33;;;4.20;;
42098;SDS011;27758;55.900;8.516;2022-10-16T12:40:59;16.13;;;3.33;;
42098;SDS011;27758;55.900;8.516;2022-10-16T12:48:34;15.82;;;4.15;;
42098;SDS011;27758;55.900;8.516;2022-10-16T12:53:36;13.02;;;3.20;;
42098;SDS011;27758;55.900;8.516;2022-10-16T12:59:09;18.10;;;3.60;;
42098;SDS011;27758;55.900;8.516;2022-10-16T13:04:35;20.20;;;4.03;;
42098;SDS011;27758;55.900;8.516;2022-10-16T13:07:19;13.05;;;2.40;;
42098;SDS011;27758;55.900;8.516;2022-10-16T13:09:57;12.95;;;2.63;;
42098;SDS011;27758;55.900;8.516;2022-10-16T13:20:59;18.17;;;3.47;;
42098;SDS011;27758;55.900;8.516;2022-10-16T13:29:14;18.25;;;2.97;;
42098;SDS011;27758;55.900;8.516;2022-10-16T13:31:41;18.98;;;3.58;;
42098;SDS011;27758;55.900;8.516;2022-10-16T13:34:17;19.58;;;3.05;;
42098;SDS011;27758;55.900;8.516;2022-10-16T13:36:50;14.88;;;3.17;;
42098;SDS011;27758;55.900;8.516;2022-10-16T13:41:57;17.63;;;4.65;;
42098;SDS011;27758;55.900;8.516;2022-10-16T13:44:45;12.27;;;2.90;;
42098;SDS011;27758;55.900;8.516;2022-10-16T13:47:17;9.88;;;2.63;;
42098;SDS011;27758;55.900;8.516;2022-10-16T13:49:45;12.43;;;2.40;;
42098;SDS011;27758;55.900;8.516;2022-10-16T13:52:16;22.42;;;3.05;;
42098;SDS011;27758;55.900;8.516;2022-10-16T13:54:44;17.80;;;3.72;;
42098;SDS011;27758;55.900;8.516;2022-10-16T13:57:14;24.48;;;3.13;;
42098;SDS011;27758;55.900;8.516;2022-10-16T13:59:41;17.73;;;3.33;;
42098;SDS011;27758;55.900;8.516;2022-10-16T14:02:30;16.58;;;3.78;;
42098;SDS011;27758;55.900;8.516;2022-10-16T14:04:53;20.90;;;3.25;;
42098;SDS011;27758;55.900;8.516;2022-10-16T14:07:22;17.73;;;3.85;;
42098;SDS011;27758;55.900;8.516;2022-10-16T14:09:50;15.80;;;3.00;;
42098;SDS011;27758;55.900;8.516;2022-10-16T14:12:18;18.65;;;3.35;;
42098;SDS011;27758;55.900;8.516;2022-10-16T14:14:45;15.60;;;3.50;;
42098;SDS011;27758;55.900;8.516;2022-10-16T14:17:14;16.92;;;3.17;;
42098;SDS011;27758;55.900;8.516;2022-10-16T14:19:44;23.27;;;4.07;;
42098;SDS011;27758;55.900;8.516;2022-10-16T14:22:23;24.10;;;3.70;;
42098;SDS011;27758;55.900;8.516;2022-10-16T14:24:49;12.60;;;2.80;;
42098;SDS011;27758;55.900;8.516;2022-10-16T14:27:29;15.80;;;3.83;;
42098;SDS011;27758;55.900;8.516;2022-10-16T14:30:08;19.00;;;2.85;;
42098;SDS011;27758;55.900;8.516;2022-10-16T14:32:52;21.60;;;4.10;;
42098;SDS011;27758;55.900;8.516;2022-10-16T14:38:00;14.50;;;3.58;;
42098;SDS011;27758;55.900;8.516;2022-10-16T14:40:30;16.55;;;3.30;;
42098;SDS011;27758;55.900;8.516;2022-10-16T14:42:59;16.60;;;3.15;;
42098;SDS011;27758;55.900;8.516;2022-10-16T14:45:26;23.15;;;3.67;;
42098;SDS011;27758;55.900;8.516;2022-10-16T14:47:55;18.80;;;3.65;;
42098;SDS011;27758;55.900;8.516;2022-10-16T14:50:23;21.35;;;4.15;;
42098;SDS011;27758;55.900;8.516;2022-10-16T14:52:50;21.05;;;3.80;;
42098;SDS011;27758;55.900;8.516;2022-10-16T14:55:16;20.38;;;4.03;;
42098;SDS011;27758;55.900;8.516;2022-10-16T14:57:43;16.98;;;3.85;;
42098;SDS011;27758;55.900;8.516;2022-10-16T15:00:13;19.15;;;4.10;;
42098;SDS011;27758;55.900;8.516;2022-10-16T15:02:45;26.42;;;4.28;;
42098;SDS011;27758;55.900;8.516;2022-10-16T15:07:40;25.52;;;4.47;;
42098;SDS011;27758;55.900;8.516;2022-10-16T15:10:06;22.08;;;3.78;;
42098;SDS011;27758;55.900;8.516;2022-10-16T15:12:32;21.08;;;4.20;;
42098;SDS011;27758;55.900;8.516;2022-10-16T15:14:58;20.08;;;3.78;;
42098;SDS011;27758;55.900;8.516;2022-10-16T15:17:23;17.70;;;4.05;;
42098;SDS011;27758;55.900;8.516;2022-10-16T15:19:49;22.27;;;3.70;;
42098;SDS011;27758;55.900;8.516;2022-10-16T15:22:16;12.05;;;3.72;;
42098;SDS011;27758;55.900;8.516;2022-10-16T15:24:42;19.85;;;3.78;;
42098;SDS011;27758;55.900;8.516;2022-10-16T15:27:08;20.77;;;3.85;;
42098;SDS011;27758;55.900;8.516;2022-10-16T15:29:34;20.80;;;3.85;;
42098;SDS011;27758;55.900;8.516;2022-10-16T15:32:00;24.90;;;4.85;;
42098;SDS011;27758;55.900;8.516;2022-10-16T15:34:26;12.82;;;3.42;;
42098;SDS011;27758;55.900;8.516;2022-10-16T15:36:52;16.88;;;3.55;;
42098;SDS011;27758;55.900;8.516;2022-10-16T15:39:20;18.90;;;4.50;;
42098;SDS011;27758;55.900;8.516;2022-10-16T15:41:47;22.98;;;3.72;;
42098;SDS011;27758;55.900;8.516;2022-10-16T15:44:19;15.30;;;3.10;;
42098;SDS011;27758;55.900;8.516;2022-10-16T15:46:46;24.48;;;4.13;;
42098;SDS011;27758;55.900;8.516;2022-10-16T15:49:12;13.65;;;3.42;;
42098;SDS011;27758;55.900;8.516;2022-10-16T15:51:39;12.77;;;3.42;;
42098;SDS011;27758;55.900;8.516;2022-10-16T15:54:06;19.40;;;3.63;;
42098;SDS011;27758;55.900;8.516;2022-10-16T15:56:32;20.38;;;3.80;;
42098;SDS011;27758;55.900;8.516;2022-10-16T15:58:59;19.85;;;3.67;;
42098;SDS011;27758;55.900;8.516;2022-10-16T16:01:27;25.38;;;5.72;;
42098;SDS011;27758;55.900;8.516;2022-10-16T16:03:54;23.90;;;4.43;;
42098;SDS011;27758;55.900;8.516;2022-10-16T16:06:21;24.05;;;4.85;;
42098;SDS011;27758;55.900;8.516;2022-10-16T16:08:49;18.70;;;4.00;;
42098;SDS011;27758;55.900;8.516;2022-10-16T16:11:16;19.67;;;4.40;;
42098;SDS011;27758;55.900;8.516;2022-10-16T16:13:42;21.20;;;4.40;;
42098;SDS011;27758;55.900;8.516;2022-10-16T16:16:09;18.10;;;4.20;;
42098;SDS011;27758;55.900;8.516;2022-10-16T16:18:37;24.67;;;4.50;;
42098;SDS011;27758;55.900;8.516;2022-10-16T16:21:04;22.65;;;4.05;;
42098;SDS011;27758;55.900;8.516;2022-10-16T16:23:30;20.25;;;3.88;;
42098;SDS011;27758;55.900;8.516;2022-10-16T16:26:07;20.48;;;3.67;;
42098;SDS011;27758;55.900;8.516;2022-10-16T16:28:35;16.08;;;3.55;;
42098;SDS011;27758;55.900;8.516;2022-10-16T16:31:02;22.65;;;3.88;;
42098;SDS011;27758;55.900;8.516;2022-10-16T16:33:28;22.77;;;4.15;;
42098;SDS011;27758;55.900;8.516;2022-10-16T16:35:56;18.83;;;4.60;;
42098;SDS011;27758;55.900;8.516;2022-10-16T16:38:23;27.35;;;4.30;;
42098;SDS011;27758;55.900;8.516;2022-10-16T16:40:50;13.95;;;3.53;;
42098;SDS011;27758;55.900;8.516;2022-10-16T16:43:17;21.98;;;3.38;;
42098;SDS011;27758;55.900;8.516;2022-10-16T16:45:43;17.45;;;3.60;;
42098;SDS011;27758;55.900;8.516;2022-10-16T16:48:09;20.55;;;3.70;;
42098;SDS011;27758;55.900;8.516;2022-10-16T16:50:35;23.00;;;4.22;;
42098;SDS011;27758;55.900;8.516;2022-10-16T16:53:02;24.35;;;4.07;;
42098;SDS011;27758;55.900;8.516;2022-10-16T16:55:27;13.90;;;3.70;;
42098;SDS011;27758;55.900;8.516;2022-10-16T16:57:53;21.85;;;4.60;;
42098;SDS011;27758;55.900;8.516;2022-10-16T17:00:19;25.10;;;4.60;;
42098;SDS011;27758;55.900;8.516;2022-10-16T17:02:49;21.70;;;4.75;;